Terminal Aerodrome Forecast
Issued by NWS

Home | Current Version | Previous Version | Text Only | Print | Product List | Glossary On
Versions: 1 2 3 4 5 6 7 8 9 10 11 12 13 14 15 16 17 18 19 20
000
FTUS46 KMTR 220900 AAB
TAFSTS
TAF AMD
KSTS 220929Z 2209/2306 00000KT P6SM BKN009 BKN018
     FM221200 14003KT P6SM VCSH BKN008 OVC015
     FM221500 VRB03KT P6SM SCT180
     FM221900 17007KT P6SM SCT180
     FM230200 17004KT P6SM SKC=

USA.gov is the U.S. government's official web portal to all federal, state and local government web resources and services.